Time;durP1;ratioP1;P1;durP2;ratioP2;P2;SDS_P1;SDS_P2;PMS_P1;PMS_P2;Temp;Humidity;BMP_temperature;BMP_pressure;BME280_temperature;BME280_humidity;BME280_pressure;Samples;Min_cycle;Max_cycle;Signal;HPM_P1;HPM_P2
2022/09/09 00:02:17;;;;;;;3.23;1.50;;;13.90;99.90;;;;;;5114005;27;20214;-78
2022/09/09 00:04:54;;;;;;;2.33;1.50;;;13.80;99.90;;;;;;5106912;28;20237;-78
2022/09/09 00:07:32;;;;;;;3.10;1.60;;;13.80;99.90;;;;;;5113022;27;20859;-77
2022/09/09 00:10:09;;;;;;;2.03;1.70;;;13.70;99.90;;;;;;5111118;27;20233;-76
2022/09/09 00:12:44;;;;;;;6.17;1.77;;;13.60;99.90;;;;;;5106236;28;20462;-77
2022/09/09 00:15:15;;;;;;;3.13;1.77;;;13.50;99.90;;;;;;5114978;28;20219;-77
2022/09/09 00:17:50;;;;;;;4.50;1.80;;;13.50;99.90;;;;;;5113095;28;20205;-78
2022/09/09 00:20:27;;;;;;;4.17;1.80;;;13.40;99.90;;;;;;5114088;28;20231;-77
2022/09/09 00:23:01;;;;;;;2.80;1.77;;;13.40;99.90;;;;;;5113549;28;20295;-78
2022/09/09 00:25:36;;;;;;;2.47;1.87;;;13.30;99.90;;;;;;5113520;28;20208;-76
2022/09/09 00:28:18;;;;;;;2.37;1.90;;;13.30;99.90;;;;;;5113540;28;20226;-78
2022/09/09 00:30:48;;;;;;;4.10;2.07;;;13.30;99.90;;;;;;5112169;27;20222;-77
2022/09/09 00:33:21;;;;;;;2.97;2.13;;;13.20;99.90;;;;;;5114165;28;20392;-77
2022/09/09 00:35:54;;;;;;;4.47;1.97;;;13.30;99.90;;;;;;5113700;28;20225;-77
2022/09/09 00:38:28;;;;;;;3.20;1.80;;;13.20;99.90;;;;;;5113912;28;20217;-77
2022/09/09 00:41:05;;;;;;;2.70;1.80;;;13.30;99.90;;;;;;5112301;27;20206;-79
2022/09/09 00:43:36;;;;;;;4.23;2.03;;;13.30;99.90;;;;;;5112748;27;20393;-76
2022/09/09 00:46:33;;;;;;;3.70;1.90;;;13.30;99.90;;;;;;5102786;28;20198;-76
2022/09/09 00:49:11;;;;;;;3.93;1.80;;;13.30;99.90;;;;;;5108401;28;20222;-77
2022/09/09 00:51:50;;;;;;;1.87;1.60;;;13.30;99.90;;;;;;5108457;28;20240;-76
2022/09/09 00:54:34;;;;;;;2.90;1.60;;;13.30;99.90;;;;;;5114258;27;20193;-76
2022/09/09 00:57:14;;;;;;;3.07;1.57;;;13.30;99.90;;;;;;5112602;28;20213;-76
2022/09/09 00:59:48;;;;;;;2.90;1.60;;;13.30;99.90;;;;;;5112603;28;20205;-78
2022/09/09 01:02:31;;;;;;;2.30;1.63;;;13.30;99.90;;;;;;5112550;28;20205;-77
2022/09/09 01:05:06;;;;;;;4.70;1.60;;;13.40;99.90;;;;;;5122923;28;20297;-75
2022/09/09 01:07:35;;;;;;;3.77;1.67;;;13.40;99.90;;;;;;5105314;28;20660;-75
2022/09/09 01:10:12;;;;;;;3.30;1.60;;;13.40;99.90;;;;;;5108548;27;20306;-77
2022/09/09 01:12:43;;;;;;;4.70;1.57;;;13.40;99.90;;;;;;5105626;28;20198;-75
2022/09/09 01:15:13;;;;;;;3.90;1.70;;;13.40;99.90;;;;;;5113574;28;20198;-77
2022/09/09 01:17:52;;;;;;;2.40;1.47;;;13.40;99.90;;;;;;5113882;27;20202;-79
2022/09/09 01:20:25;;;;;;;3.10;1.60;;;13.40;99.90;;;;;;5112175;28;20643;-76
2022/09/09 01:23:29;;;;;;;2.53;1.60;;;13.40;99.90;;;;;;5113577;28;20213;-76
2022/09/09 01:26:20;;;;;;;3.83;1.70;;;13.40;99.90;;;;;;5092297;27;20663;-76
2022/09/09 01:28:52;;;;;;;4.10;1.80;;;13.40;99.90;;;;;;5105930;27;20199;-77
2022/09/09 01:31:23;;;;;;;6.10;1.90;;;13.40;99.90;;;;;;5112448;27;20218;-76
2022/09/09 01:33:51;;;;;;;2.43;1.77;;;13.40;99.90;;;;;;5106430;28;20210;-76
2022/09/09 01:36:27;;;;;;;2.50;1.70;;;13.30;99.90;;;;;;5113160;28;20198;-76
2022/09/09 01:38:55;;;;;;;3.97;1.67;;;13.40;99.90;;;;;;5112663;27;20201;-76
2022/09/09 01:41:24;;;;;;;2.40;1.67;;;13.40;99.90;;;;;;5112469;28;20656;-77
2022/09/09 01:43:55;;;;;;;1.77;1.40;;;13.40;99.90;;;;;;5111741;28;20296;-77
2022/09/09 01:46:24;;;;;;;2.10;1.70;;;13.40;99.90;;;;;;5113304;28;20230;-78
2022/09/09 01:48:53;;;;;;;4.80;1.77;;;13.40;99.90;;;;;;5118327;27;20222;-77
2022/09/09 01:51:21;;;;;;;3.53;1.67;;;13.40;99.90;;;;;;5108131;28;20230;-76
2022/09/09 01:53:49;;;;;;;1.77;1.50;;;13.40;99.90;;;;;;5112078;28;20576;-77
2022/09/09 01:56:31;;;;;;;2.60;1.53;;;13.40;99.90;;;;;;5112384;28;20205;-76
2022/09/09 01:59:11;;;;;;;3.80;1.57;;;13.40;99.90;;;;;;5112039;28;20198;-77
2022/09/09 02:01:50;;;;;;;5.13;1.63;;;13.40;99.90;;;;;;5117578;27;20292;-78
2022/09/09 02:04:36;;;;;;;2.77;1.53;;;13.40;99.90;;;;;;5110888;28;20206;-77
2022/09/09 02:07:11;;;;;;;3.40;1.83;;;13.40;99.90;;;;;;5111907;28;20198;-77
2022/09/09 02:09:42;;;;;;;2.70;1.60;;;13.50;99.90;;;;;;5105727;28;20201;-78
2022/09/09 02:12:17;;;;;;;4.10;1.70;;;13.50;99.90;;;;;;5118692;27;20216;-77
2022/09/09 02:14:51;;;;;;;1.63;1.47;;;13.50;99.90;;;;;;5103976;28;20189;-76
2022/09/09 02:17:24;;;;;;;2.23;1.57;;;13.50;99.90;;;;;;5111433;28;20213;-78
2022/09/09 02:19:58;;;;;;;3.10;1.57;;;13.40;99.90;;;;;;5111184;28;20214;-76
2022/09/09 02:22:29;;;;;;;3.30;1.60;;;13.40;99.90;;;;;;5109683;28;20198;-76
2022/09/09 02:25:01;;;;;;;1.63;1.40;;;13.40;99.90;;;;;;5108261;27;20566;-76
2022/09/09 02:27:30;;;;;;;4.13;1.60;;;13.30;99.90;;;;;;5111039;28;20206;-77
2022/09/09 02:30:02;;;;;;;2.57;1.60;;;13.30;99.90;;;;;;5111362;28;20254;-77
2022/09/09 02:32:33;;;;;;;3.13;1.60;;;13.30;99.90;;;;;;5111364;28;20202;-76
2022/09/09 02:35:06;;;;;;;1.63;1.53;;;13.20;99.90;;;;;;5111533;28;20206;-76
2022/09/09 02:37:38;;;;;;;2.57;1.80;;;13.20;99.90;;;;;;5116006;28;20763;-76
2022/09/09 02:40:10;;;;;;;2.03;1.60;;;13.20;99.90;;;;;;5108380;28;20198;-79
2022/09/09 02:42:43;;;;;;;3.17;1.80;;;13.20;99.90;;;;;;5104604;28;20213;-77
2022/09/09 02:45:13;;;;;;;2.77;1.63;;;13.20;99.90;;;;;;5110741;28;20206;-77
2022/09/09 02:47:52;;;;;;;7.63;1.90;;;13.20;99.90;;;;;;5112192;28;20202;-78
2022/09/09 02:50:26;;;;;;;3.87;1.80;;;13.10;99.90;;;;;;5108816;28;20232;-76
2022/09/09 02:53:07;;;;;;;2.00;1.50;;;13.10;99.90;;;;;;5112242;28;20186;-78
2022/09/09 02:55:40;;;;;;;3.70;1.70;;;13.20;99.90;;;;;;5111184;28;20213;-78
2022/09/09 02:58:16;;;;;;;3.53;1.47;;;13.20;99.90;;;;;;5110875;28;20544;-77
2022/09/09 03:00:46;;;;;;;2.60;1.47;;;13.20;99.90;;;;;;5110418;28;20289;-78
2022/09/09 03:03:15;;;;;;;2.63;1.60;;;13.20;99.90;;;;;;5111929;28;20241;-77
2022/09/09 03:05:44;;;;;;;3.23;1.60;;;13.30;99.90;;;;;;5111037;28;20206;-77
2022/09/09 03:08:13;;;;;;;2.40;1.60;;;13.30;99.90;;;;;;5111893;28;20207;-78
2022/09/09 03:10:41;;;;;;;3.73;1.50;;;13.40;99.90;;;;;;5110492;28;20206;-77
2022/09/09 03:13:12;;;;;;;2.83;1.50;;;13.40;99.90;;;;;;5116774;28;20206;-78
2022/09/09 03:15:40;;;;;;;1.97;1.30;;;13.40;99.90;;;;;;5110745;28;20199;-77
2022/09/09 03:18:08;;;;;;;2.43;1.60;;;13.50;99.90;;;;;;5111780;28;20579;-78
2022/09/09 03:20:36;;;;;;;2.83;1.57;;;13.50;99.90;;;;;;5110518;28;20206;-77
2022/09/09 03:23:04;;;;;;;3.07;1.60;;;13.50;99.90;;;;;;5111545;28;20709;-76
2022/09/09 03:25:33;;;;;;;2.83;1.50;;;13.50;99.90;;;;;;5109534;28;20203;-77
2022/09/09 03:28:01;;;;;;;2.87;1.53;;;13.50;99.90;;;;;;5110050;28;20211;-77
2022/09/09 03:30:30;;;;;;;3.07;1.60;;;13.50;99.90;;;;;;5109758;28;20254;-77
2022/09/09 03:32:59;;;;;;;2.40;1.67;;;13.50;99.90;;;;;;5109870;28;20797;-77
2022/09/09 03:35:27;;;;;;;2.33;1.50;;;13.50;99.90;;;;;;5111466;28;20203;-77
2022/09/09 03:37:55;;;;;;;2.70;1.77;;;13.50;99.90;;;;;;5115650;28;20199;-76
2022/09/09 03:40:23;;;;;;;6.80;1.83;;;13.50;99.90;;;;;;5111278;28;20202;-76
2022/09/09 03:42:51;;;;;;;3.27;1.60;;;13.50;99.90;;;;;;5095234;28;20207;-78
2022/09/09 03:45:20;;;;;;;3.43;1.47;;;13.50;99.90;;;;;;5109707;28;20214;-76
2022/09/09 03:47:49;;;;;;;7.00;1.80;;;13.40;99.90;;;;;;5114053;28;20220;-77
2022/09/09 03:50:18;;;;;;;2.57;1.63;;;13.40;99.90;;;;;;5117487;27;20274;-76
2022/09/09 03:52:46;;;;;;;3.73;1.70;;;13.40;99.90;;;;;;5114078;28;20735;-78
2022/09/09 03:55:14;;;;;;;3.20;1.70;;;13.30;99.90;;;;;;5113513;27;20206;-78
2022/09/09 03:57:42;;;;;;;6.50;2.07;;;13.30;99.90;;;;;;5112732;28;20210;-77
2022/09/09 04:00:11;;;;;;;3.97;1.70;;;13.20;99.90;;;;;;5113055;27;20207;-77
2022/09/09 04:02:39;;;;;;;1.77;1.60;;;13.20;99.90;;;;;;5114367;28;20202;-78
2022/09/09 04:05:09;;;;;;;4.03;1.70;;;13.10;99.90;;;;;;5113937;28;20630;-76
2022/09/09 04:07:37;;;;;;;4.70;1.90;;;13.10;99.90;;;;;;5094318;28;20206;-76
2022/09/09 04:10:07;;;;;;;3.00;1.73;;;13.10;99.90;;;;;;5116174;27;20621;-77
2022/09/09 04:12:35;;;;;;;2.80;1.80;;;13.10;99.90;;;;;;5095944;28;20222;-78
2022/09/09 04:15:03;;;;;;;3.90;1.97;;;13.10;99.90;;;;;;5108349;28;20202;-76
2022/09/09 04:17:32;;;;;;;2.07;1.67;;;13.10;99.90;;;;;;5112989;28;20210;-76
2022/09/09 04:20:01;;;;;;;3.20;1.77;;;13.10;99.90;;;;;;5097241;28;20207;-78
2022/09/09 04:22:31;;;;;;;2.27;1.60;;;13.10;99.90;;;;;;5105384;27;20195;-78
2022/09/09 04:24:59;;;;;;;5.27;1.80;;;13.20;99.90;;;;;;5115791;28;20202;-79
2022/09/09 04:27:27;;;;;;;2.47;1.70;;;13.20;99.90;;;;;;5111689;28;20218;-78
2022/09/09 04:29:56;;;;;;;2.70;1.77;;;13.30;99.90;;;;;;5114529;28;20206;-77
2022/09/09 04:32:26;;;;;;;6.83;1.57;;;13.30;99.90;;;;;;5114021;27;20226;-77
2022/09/09 04:34:54;;;;;;;3.20;1.70;;;13.30;99.90;;;;;;5109222;27;20214;-77
2022/09/09 04:37:22;;;;;;;2.67;1.70;;;13.30;99.90;;;;;;5105920;28;20571;-77
2022/09/09 04:39:52;;;;;;;2.30;1.83;;;13.30;99.90;;;;;;5112861;28;20213;-78
2022/09/09 04:42:20;;;;;;;4.30;1.60;;;13.30;99.90;;;;;;5113475;28;20320;-76
2022/09/09 04:44:48;;;;;;;5.53;1.87;;;13.30;99.90;;;;;;5113844;27;20755;-77
2022/09/09 04:47:16;;;;;;;4.03;1.60;;;13.30;99.90;;;;;;5115872;27;20591;-77
2022/09/09 04:49:44;;;;;;;6.60;1.97;;;13.40;99.90;;;;;;5096924;28;20229;-77
2022/09/09 04:52:12;;;;;;;2.23;1.50;;;13.30;99.90;;;;;;5113722;28;20229;-75
2022/09/09 04:54:40;;;;;;;4.53;1.97;;;13.30;99.90;;;;;;5104912;28;20210;-77
2022/09/09 04:57:11;;;;;;;5.07;1.83;;;13.30;99.90;;;;;;5116768;27;20574;-77
2022/09/09 04:59:45;;;;;;;4.53;2.00;;;13.30;99.90;;;;;;5112055;27;20205;-76
2022/09/09 05:02:13;;;;;;;4.17;1.83;;;13.30;99.90;;;;;;5113820;28;20293;-76
2022/09/09 05:04:41;;;;;;;3.73;1.80;;;13.30;99.90;;;;;;5112830;28;20206;-78
2022/09/09 05:07:10;;;;;;;3.10;1.70;;;13.30;99.90;;;;;;5112843;28;20206;-76
2022/09/09 05:09:38;;;;;;;5.30;1.80;;;13.30;99.90;;;;;;5111133;27;20211;-77
2022/09/09 05:12:06;;;;;;;4.37;1.90;;;13.30;99.90;;;;;;5113512;28;20226;-77
2022/09/09 05:14:37;;;;;;;4.90;1.80;;;13.30;99.90;;;;;;5111986;28;20220;-78
2022/09/09 05:17:05;;;;;;;2.03;1.57;;;13.30;99.90;;;;;;5112334;28;20589;-77
2022/09/09 05:19:33;;;;;;;5.60;1.93;;;13.30;99.90;;;;;;5117057;27;20211;-76
2022/09/09 05:22:01;;;;;;;4.07;2.10;;;13.30;99.90;;;;;;5111999;27;20206;-77
2022/09/09 05:24:32;;;;;;;2.57;1.93;;;13.30;99.90;;;;;;5112979;28;20884;-75
2022/09/09 05:27:02;;;;;;;5.20;2.37;;;13.30;99.90;;;;;;5116105;27;20685;-77
2022/09/09 05:29:33;;;;;;;5.33;2.50;;;13.40;99.90;;;;;;5112237;28;20233;-79
2022/09/09 05:32:02;;;;;;;4.87;2.20;;;13.80;99.90;;;;;;5111918;28;20198;-76
2022/09/09 05:34:30;;;;;;;4.10;1.60;;;14.30;99.90;;;;;;5113138;28;20205;-77
2022/09/09 05:36:59;;;;;;;3.40;1.50;;;14.40;99.90;;;;;;5114878;27;20202;-77
2022/09/09 05:39:27;;;;;;;3.07;1.77;;;14.20;99.90;;;;;;5111787;28;20214;-77
2022/09/09 05:41:55;;;;;;;4.17;1.90;;;14.00;99.90;;;;;;5107772;28;20210;-75
2022/09/09 05:44:27;;;;;;;3.90;1.70;;;13.90;99.90;;;;;;5111461;28;20202;-77
2022/09/09 05:46:55;;;;;;;3.60;1.60;;;13.90;99.90;;;;;;5109658;28;20206;-76
2022/09/09 05:49:25;;;;;;;5.43;1.90;;;13.90;99.90;;;;;;5119024;27;20205;-75
2022/09/09 05:51:53;;;;;;;2.43;1.60;;;13.80;99.90;;;;;;5112066;28;20236;-76
2022/09/09 05:54:21;;;;;;;3.47;1.93;;;13.90;99.90;;;;;;5111986;28;20218;-77
2022/09/09 05:56:52;;;;;;;2.90;1.87;;;13.90;99.90;;;;;;5112264;28;20233;-76
2022/09/09 05:59:23;;;;;;;4.03;1.83;;;13.90;99.90;;;;;;5111499;28;20205;-77
2022/09/09 06:01:51;;;;;;;4.30;1.63;;;13.90;99.90;;;;;;5113517;27;20306;-75
2022/09/09 06:04:22;;;;;;;3.93;1.60;;;13.90;99.90;;;;;;5112929;28;20198;-77
2022/09/09 06:06:51;;;;;;;4.57;2.10;;;13.90;99.90;;;;;;5111119;28;20713;-77
2022/09/09 06:09:19;;;;;;;4.10;1.70;;;13.90;99.90;;;;;;5111010;28;20210;-77
2022/09/09 06:11:48;;;;;;;5.47;1.87;;;13.90;99.90;;;;;;5114785;27;20206;-78
2022/09/09 06:14:17;;;;;;;5.03;1.90;;;14.00;99.90;;;;;;5103019;28;20226;-77
2022/09/09 06:16:45;;;;;;;2.23;1.60;;;14.00;99.90;;;;;;5110402;28;20566;-75
2022/09/09 06:19:14;;;;;;;4.77;1.73;;;13.90;99.90;;;;;;5111817;28;20702;-77
2022/09/09 06:21:44;;;;;;;2.00;1.60;;;13.90;99.90;;;;;;5111919;28;20202;-78
2022/09/09 06:24:17;;;;;;;3.20;1.60;;;13.90;99.90;;;;;;5115130;28;20213;-77
2022/09/09 06:26:45;;;;;;;2.33;1.57;;;14.00;99.90;;;;;;5111836;28;20209;-77
2022/09/09 06:29:16;;;;;;;6.17;1.80;;;14.00;99.90;;;;;;5112240;28;20218;-78
2022/09/09 06:31:47;;;;;;;6.67;1.70;;;14.10;99.90;;;;;;5111089;28;20198;-77
2022/09/09 06:34:15;;;;;;;4.07;1.77;;;14.20;99.90;;;;;;5112628;28;20253;-78
2022/09/09 06:36:45;;;;;;;8.40;1.80;;;14.20;99.90;;;;;;5112322;28;20206;-78
2022/09/09 06:39:15;;;;;;;3.20;1.80;;;14.30;99.90;;;;;;5110970;28;20236;-78
2022/09/09 06:41:43;;;;;;;2.33;1.87;;;14.40;99.90;;;;;;5112445;28;20221;-79
2022/09/09 06:44:12;;;;;;;3.73;1.40;;;14.40;99.90;;;;;;5111409;28;20207;-78
2022/09/09 06:46:41;;;;;;;3.73;1.60;;;14.40;99.90;;;;;;5114976;28;20229;-78
2022/09/09 06:49:09;;;;;;;8.10;1.90;;;14.40;99.90;;;;;;5114304;28;20244;-78
2022/09/09 06:51:42;;;;;;;3.93;1.60;;;14.50;99.90;;;;;;5111277;28;20660;-77
2022/09/09 06:54:11;;;;;;;5.33;1.50;;;14.50;99.90;;;;;;5112258;28;20396;-77
2022/09/09 06:56:42;;;;;;;2.20;1.50;;;14.50;99.90;;;;;;5111159;28;20209;-78
2022/09/09 06:59:11;;;;;;;2.87;1.70;;;14.50;99.90;;;;;;5110095;28;20201;-77
2022/09/09 07:01:41;;;;;;;4.10;1.43;;;14.50;99.90;;;;;;5103972;28;20290;-80
2022/09/09 07:04:10;;;;;;;3.27;1.57;;;14.50;99.90;;;;;;5111626;28;20289;-78
2022/09/09 07:06:40;;;;;;;2.90;1.47;;;14.50;99.90;;;;;;5111737;28;20213;-77
2022/09/09 07:09:10;;;;;;;2.30;1.50;;;14.50;99.90;;;;;;5110916;28;20691;-78
2022/09/09 07:11:42;;;;;;;3.57;1.60;;;14.50;99.90;;;;;;5111069;28;20218;-76
2022/09/09 07:14:13;;;;;;;3.13;1.30;;;14.60;99.90;;;;;;5113769;27;20214;-78
2022/09/09 07:16:41;;;;;;;3.87;1.57;;;14.70;99.90;;;;;;5116917;28;20202;-78
2022/09/09 07:19:10;;;;;;;4.40;1.60;;;14.70;99.90;;;;;;5112112;28;20221;-77
2022/09/09 07:21:40;;;;;;;4.97;2.00;;;14.80;99.90;;;;;;5118709;27;20206;-78
2022/09/09 07:24:09;;;;;;;6.13;1.90;;;14.90;99.90;;;;;;5116105;27;20202;-76
2022/09/09 07:26:40;;;;;;;3.63;1.40;;;15.00;99.90;;;;;;5099243;28;20585;-78
2022/09/09 07:29:09;;;;;;;3.10;1.40;;;15.10;99.90;;;;;;5116388;28;20194;-76
2022/09/09 07:31:39;;;;;;;2.93;1.60;;;15.10;99.90;;;;;;5114821;28;20661;-75
2022/09/09 07:34:08;;;;;;;3.97;1.40;;;15.10;99.90;;;;;;5122981;27;20230;-77
2022/09/09 07:36:38;;;;;;;2.90;1.60;;;15.20;99.90;;;;;;5111574;28;20206;-77
2022/09/09 07:39:07;;;;;;;2.33;1.40;;;15.30;99.90;;;;;;5114736;28;20229;-76
2022/09/09 07:41:37;;;;;;;4.67;1.50;;;15.30;99.90;;;;;;5115010;28;20612;-75
2022/09/09 07:44:08;;;;;;;4.80;1.83;;;15.30;99.90;;;;;;5116604;27;20205;-78
2022/09/09 07:46:39;;;;;;;5.17;2.00;;;15.10;99.90;;;;;;5117376;28;20202;-79
2022/09/09 07:49:08;;;;;;;5.30;2.00;;;15.00;99.90;;;;;;5136661;28;20275;-79
2022/09/09 07:51:38;;;;;;;3.10;2.10;;;14.90;99.90;;;;;;5115293;28;20226;-79
2022/09/09 07:54:09;;;;;;;5.90;2.87;;;14.80;99.90;;;;;;5134812;28;20216;-79
2022/09/09 07:56:38;;;;;;;4.73;2.63;;;14.70;99.90;;;;;;5109416;27;20207;-80
2022/09/09 07:59:10;;;;;;;3.87;2.73;;;14.70;99.90;;;;;;5114660;28;20210;-79
2022/09/09 08:01:39;;;;;;;6.03;2.60;;;14.60;99.90;;;;;;5108024;28;20209;-80
2022/09/09 08:04:14;;;;;;;5.60;2.80;;;14.70;99.90;;;;;;5115515;28;20210;-78
2022/09/09 08:06:46;;;;;;;4.67;2.47;;;14.70;99.90;;;;;;5109771;28;20213;-77
2022/09/09 08:09:14;;;;;;;3.77;2.50;;;14.70;99.90;;;;;;5121448;27;20296;-78
2022/09/09 08:11:43;;;;;;;8.50;2.60;;;14.60;99.90;;;;;;5120323;27;20382;-79
2022/09/09 08:14:13;;;;;;;4.40;2.60;;;14.70;99.90;;;;;;5115473;27;20218;-80
2022/09/09 08:16:43;;;;;;;2.73;2.30;;;14.60;99.90;;;;;;5114126;28;20644;-79
2022/09/09 08:19:12;;;;;;;5.57;2.80;;;14.60;99.90;;;;;;5122479;27;20302;-79
2022/09/09 08:21:42;;;;;;;3.87;2.40;;;14.70;99.90;;;;;;5114053;27;20206;-79
2022/09/09 08:24:11;;;;;;;3.10;2.40;;;14.70;99.90;;;;;;5114485;28;20236;-80
2022/09/09 08:26:41;;;;;;;5.53;2.80;;;14.70;99.90;;;;;;5113717;28;20210;-80
2022/09/09 08:29:11;;;;;;;3.60;2.40;;;14.80;99.90;;;;;;5117663;27;20696;-80
2022/09/09 08:31:43;;;;;;;4.10;2.67;;;14.80;99.90;;;;;;5118975;28;20203;-78
2022/09/09 08:34:12;;;;;;;4.60;2.50;;;14.80;99.90;;;;;;5114605;28;20262;-79
2022/09/09 08:36:42;;;;;;;4.13;2.70;;;14.80;99.90;;;;;;5112699;28;20198;-79
2022/09/09 08:39:11;;;;;;;5.13;2.73;;;14.90;99.90;;;;;;5120693;27;20631;-79
2022/09/09 08:42:09;;;;;;;4.53;2.23;;;14.90;99.90;;;;;;5115560;27;20217;-80
2022/09/09 08:44:56;;;;;;;3.73;2.27;;;14.90;99.90;;;;;;5109968;27;20202;-78
2022/09/09 08:47:38;;;;;;;4.87;2.20;;;15.00;99.90;;;;;;5111244;28;20213;-79
2022/09/09 08:50:24;;;;;;;4.83;2.37;;;15.20;99.90;;;;;;5113154;27;20655;-77
2022/09/09 08:53:02;;;;;;;3.13;1.97;;;15.30;99.90;;;;;;5108395;28;20198;-78
2022/09/09 08:55:41;;;;;;;3.50;2.40;;;15.50;99.90;;;;;;5114473;28;20230;-78
2022/09/09 08:58:14;;;;;;;5.17;2.30;;;15.60;99.90;;;;;;5113498;28;20190;-78
2022/09/09 09:00:59;;;;;;;4.80;2.40;;;15.70;99.90;;;;;;5113315;28;20198;-80
2022/09/09 09:03:41;;;;;;;3.63;2.13;;;15.80;99.90;;;;;;5110169;28;20198;-78
2022/09/09 09:06:22;;;;;;;3.00;1.97;;;15.90;99.90;;;;;;5110864;28;20628;-78
2022/09/09 09:09:01;;;;;;;3.63;1.97;;;15.80;99.90;;;;;;5105722;28;20214;-78
2022/09/09 09:11:37;;;;;;;3.30;2.00;;;15.90;99.90;;;;;;5115044;27;20226;-77
2022/09/09 09:14:14;;;;;;;3.47;1.90;;;15.80;99.90;;;;;;5117667;27;20202;-78
2022/09/09 09:16:53;;;;;;;4.53;2.17;;;15.80;99.90;;;;;;5110366;28;20198;-79
2022/09/09 09:19:25;;;;;;;3.73;2.00;;;15.70;99.90;;;;;;5115777;27;20210;-79
2022/09/09 09:21:58;;;;;;;4.47;2.20;;;15.60;99.90;;;;;;5113489;27;20216;-79
2022/09/09 09:24:36;;;;;;;5.07;2.30;;;15.60;99.90;;;;;;5113058;28;20687;-77
2022/09/09 09:27:14;;;;;;;4.53;2.53;;;15.50;99.90;;;;;;5111457;28;20606;-77
2022/09/09 09:29:45;;;;;;;7.80;2.87;;;15.40;99.90;;;;;;5110811;28;20247;-77
2022/09/09 09:32:37;;;;;;;5.43;2.90;;;15.40;99.90;;;;;;5108440;27;20233;-78
2022/09/09 09:35:13;;;;;;;4.03;2.70;;;15.50;99.90;;;;;;5107605;28;20218;-78
2022/09/09 09:37:49;;;;;;;7.60;3.00;;;15.50;99.90;;;;;;5107665;28;20241;-78
2022/09/09 09:40:37;;;;;;;8.50;3.27;;;15.50;99.90;;;;;;5099330;28;20206;-77
2022/09/09 09:43:08;;;;;;;5.67;2.97;;;15.60;99.90;;;;;;5109867;28;20206;-77
2022/09/09 09:45:45;;;;;;;4.03;2.50;;;15.70;99.90;;;;;;5112276;27;20226;-78
2022/09/09 09:48:33;;;;;;;4.70;2.83;;;15.80;99.90;;;;;;5109492;28;20202;-79
2022/09/09 09:51:10;;;;;;;7.43;2.63;;;15.90;99.90;;;;;;5111143;28;20210;-79
2022/09/09 09:53:41;;;;;;;4.40;2.60;;;15.80;99.90;;;;;;5113500;27;20709;-78
2022/09/09 09:56:11;;;;;;;6.27;3.00;;;15.70;99.90;;;;;;5111399;28;20303;-77
2022/09/09 09:58:51;;;;;;;7.90;3.13;;;15.70;99.90;;;;;;5113362;27;20284;-78
2022/09/09 10:01:25;;;;;;;3.50;2.83;;;15.60;99.90;;;;;;5109445;28;20209;-78
2022/09/09 10:03:55;;;;;;;6.70;2.90;;;15.60;99.90;;;;;;5110431;27;20209;-77
2022/09/09 10:06:35;;;;;;;4.83;2.50;;;15.60;99.90;;;;;;5113125;27;20202;-79
2022/09/09 10:09:20;;;;;;;4.77;2.83;;;15.50;99.90;;;;;;5110231;28;20221;-80
2022/09/09 10:11:56;;;;;;;4.93;2.83;;;15.50;99.90;;;;;;5111664;27;20221;-79
2022/09/09 10:14:30;;;;;;;5.67;2.77;;;15.50;99.90;;;;;;5107440;27;20194;-79
2022/09/09 10:17:11;;;;;;;5.20;2.77;;;15.50;99.90;;;;;;5110985;28;20292;-78
2022/09/09 10:19:46;;;;;;;3.37;2.60;;;15.50;99.90;;;;;;5112784;28;20571;-78
2022/09/09 10:22:26;;;;;;;5.93;2.97;;;15.60;99.90;;;;;;5112089;28;20198;-80
2022/09/09 10:25:18;;;;;;;4.90;3.00;;;15.70;99.90;;;;;;5113823;27;20225;-78
2022/09/09 10:27:58;;;;;;;4.27;2.50;;;15.80;99.90;;;;;;5109453;28;20683;-78
2022/09/09 10:30:43;;;;;;;4.83;2.90;;;15.70;99.90;;;;;;5112097;28;20217;-78
2022/09/09 10:33:18;;;;;;;4.10;2.87;;;15.70;99.90;;;;;;5119664;27;20770;-80
2022/09/09 10:35:54;;;;;;;5.00;2.47;;;15.70;99.90;;;;;;5108458;28;20205;-78
2022/09/09 10:38:30;;;;;;;4.60;2.50;;;15.90;99.90;;;;;;5110999;28;20193;-78
2022/09/09 10:41:12;;;;;;;4.70;2.53;;;15.90;99.90;;;;;;5109098;28;20686;-78
2022/09/09 10:43:56;;;;;;;3.47;2.20;;;15.90;99.90;;;;;;5110735;28;20202;-79
2022/09/09 10:46:40;;;;;;;3.13;2.10;;;15.90;99.90;;;;;;5103777;28;20193;-79
2022/09/09 10:49:19;;;;;;;4.80;2.10;;;16.00;99.90;;;;;;5112238;27;20214;-79
2022/09/09 10:51:59;;;;;;;3.07;1.97;;;16.00;99.90;;;;;;5112862;27;20225;-79
2022/09/09 10:54:45;;;;;;;2.67;1.53;;;16.10;99.90;;;;;;5114412;27;20201;-78
2022/09/09 10:57:31;;;;;;;4.17;1.53;;;16.10;99.90;;;;;;5113598;28;20194;-77
2022/09/09 11:00:04;;;;;;;3.13;1.60;;;16.20;99.90;;;;;;5110037;27;20198;-79
2022/09/09 11:02:34;;;;;;;3.43;1.60;;;16.50;99.90;;;;;;5106466;28;20213;-79
2022/09/09 11:05:06;;;;;;;2.60;1.53;;;16.70;99.90;;;;;;5114828;28;20691;-79
2022/09/09 11:07:40;;;;;;;2.40;1.50;;;17.10;99.90;;;;;;5110037;28;20198;-78
2022/09/09 11:10:24;;;;;;;3.63;1.67;;;17.40;99.90;;;;;;5104904;27;20206;-79
2022/09/09 11:13:00;;;;;;;2.33;1.10;;;17.80;99.90;;;;;;5109168;27;20206;-79
2022/09/09 11:15:32;;;;;;;2.27;1.30;;;18.30;99.90;;;;;;5113197;27;20222;-81
2022/09/09 11:18:05;;;;;;;1.93;1.27;;;18.50;99.90;;;;;;5112478;27;20222;-80
2022/09/09 11:20:34;;;;;;;2.00;1.20;;;18.80;99.90;;;;;;5109004;27;20199;-80
2022/09/09 11:23:06;;;;;;;1.60;1.30;;;19.00;99.90;;;;;;5109414;27;20209;-80
2022/09/09 11:25:40;;;;;;;1.87;1.20;;;19.60;99.90;;;;;;5108691;27;20201;-80
2022/09/09 11:28:26;;;;;;;1.93;1.10;;;19.70;99.90;;;;;;5111832;27;20206;-80
2022/09/09 11:31:11;;;;;;;1.90;1.17;;;19.60;99.90;;;;;;5109441;28;20222;-79
2022/09/09 11:34:08;;;;;;;1.23;1.00;;;20.10;99.90;;;;;;5115720;28;20214;-82
2022/09/09 11:36:55;;;;;;;2.97;1.20;;;20.20;99.90;;;;;;5115590;28;20214;-81
2022/09/09 11:39:49;;;;;;;2.00;1.17;;;20.60;99.90;;;;;;5115253;28;20202;-80
2022/09/09 11:42:21;;;;;;;1.80;1.00;;;20.60;99.90;;;;;;5115846;28;20206;-82
2022/09/09 11:44:50;;;;;;;4.60;1.20;;;20.40;99.90;;;;;;5115492;28;20214;-81
2022/09/09 11:47:29;;;;;;;1.77;1.07;;;20.30;99.90;;;;;;5115573;28;20213;-77
2022/09/09 11:50:09;;;;;;;1.90;1.07;;;19.90;99.90;;;;;;5115673;28;20186;-82
2022/09/09 11:52:42;;;;;;;2.10;1.03;;;19.90;99.90;;;;;;5115723;28;20190;-82
2022/09/09 11:55:13;;;;;;;2.20;1.03;;;20.00;99.90;;;;;;5115788;28;20206;-80
2022/09/09 11:57:43;;;;;;;2.67;1.10;;;19.90;99.90;;;;;;5116647;28;20222;-81
2022/09/09 12:00:34;;;;;;;2.73;1.13;;;19.70;99.90;;;;;;5118832;28;20202;-80
2022/09/09 12:03:02;;;;;;;1.50;1.03;;;19.80;99.90;;;;;;5120316;28;20218;-81
2022/09/09 12:05:40;;;;;;;1.77;1.10;;;20.00;99.90;;;;;;5117669;28;20251;-82
2022/09/09 12:08:11;;;;;;;1.40;1.03;;;20.30;99.90;;;;;;5117729;28;20209;-82
2022/09/09 12:10:41;;;;;;;2.43;1.30;;;20.40;99.90;;;;;;5115706;28;20198;-82
2022/09/09 12:13:17;;;;;;;2.70;1.07;;;20.60;99.90;;;;;;5115902;28;20210;-83
2022/09/09 12:15:50;;;;;;;2.03;1.03;;;20.50;99.90;;;;;;5115562;28;20209;-80
2022/09/09 12:18:25;;;;;;;1.93;1.03;;;20.40;99.90;;;;;;5120180;28;20228;-81
2022/09/09 12:21:03;;;;;;;1.87;0.83;;;20.10;99.90;;;;;;5136151;28;20382;-78
2022/09/09 12:23:44;;;;;;;1.77;0.80;;;19.80;99.90;;;;;;5136220;28;20194;-80
2022/09/09 12:26:28;;;;;;;3.70;1.00;;;19.50;99.90;;;;;;5122840;28;20280;-82
2022/09/09 12:29:19;;;;;;;2.00;0.90;;;19.60;99.90;;;;;;5126447;28;20190;-81
2022/09/09 12:31:57;;;;;;;1.93;1.00;;;19.40;99.90;;;;;;5138445;28;20241;-82
2022/09/09 12:34:39;;;;;;;1.23;0.97;;;19.50;99.90;;;;;;5111001;28;20289;-80
2022/09/09 12:37:18;;;;;;;2.67;1.00;;;19.20;99.90;;;;;;5099269;28;20691;-81
2022/09/09 12:39:52;;;;;;;1.37;0.80;;;19.00;99.90;;;;;;5115224;28;20247;-82
2022/09/09 12:42:25;;;;;;;2.63;0.70;;;18.70;99.90;;;;;;5114766;28;20227;-81
2022/09/09 12:45:00;;;;;;;3.80;1.10;;;18.60;99.90;;;;;;5114809;28;20198;-81
2022/09/09 12:47:40;;;;;;;1.80;0.70;;;18.40;99.90;;;;;;5115228;28;20296;-82
2022/09/09 12:50:18;;;;;;;2.87;0.70;;;18.50;99.90;;;;;;5115679;28;20198;-82
2022/09/09 12:52:47;;;;;;;1.43;0.80;;;18.30;99.90;;;;;;5116163;28;20624;-80
2022/09/09 12:55:21;;;;;;;0.73;0.60;;;18.30;99.90;;;;;;5115679;28;20206;-81
2022/09/09 12:57:51;;;;;;;0.80;0.80;;;18.20;99.90;;;;;;5116062;28;20221;-81
2022/09/09 13:00:23;;;;;;;2.00;0.70;;;18.30;99.90;;;;;;5108945;28;20238;-81
2022/09/09 13:02:53;;;;;;;1.57;0.80;;;18.40;99.90;;;;;;5109360;28;20194;-81
2022/09/09 13:05:24;;;;;;;1.07;0.80;;;18.50;99.90;;;;;;5114570;28;20244;-81
2022/09/09 13:08:01;;;;;;;0.60;0.60;;;18.40;99.90;;;;;;5113431;28;20203;-81
2022/09/09 13:10:34;;;;;;;0.97;0.73;;;18.50;99.90;;;;;;5113183;28;20286;-81
2022/09/09 13:13:19;;;;;;;3.03;1.20;;;18.60;99.90;;;;;;5114124;28;20218;-81
2022/09/09 13:15:53;;;;;;;1.17;0.90;;;18.60;99.90;;;;;;5115292;28;20191;-81
2022/09/09 13:18:25;;;;;;;1.80;0.67;;;18.80;99.90;;;;;;5114405;28;20248;-77
2022/09/09 13:20:53;;;;;;;1.50;0.80;;;18.90;99.90;;;;;;5114569;28;20205;-82